sensor_id;sensor_type;location;lat;lon;timestamp;temperature;humidity
11583;DHT22;34299;50.820;4.548;2024-02-28T00:25:38;3.90;99.90
11583;DHT22;34299;50.820;4.548;2024-02-28T00:28:05;3.90;99.90
11583;DHT22;34299;50.820;4.548;2024-02-28T00:30:32;3.70;99.90
11583;DHT22;34299;50.820;4.548;2024-02-28T00:33:00;3.20;99.90
11583;DHT22;34299;50.820;4.548;2024-02-28T00:35:27;3.10;99.90
11583;DHT22;34299;50.820;4.548;2024-02-28T00:37:55;3.30;99.90
11583;DHT22;34299;50.820;4.548;2024-02-28T00:40:22;3.50;99.90
11583;DHT22;34299;50.820;4.548;2024-02-28T00:42:52;3.60;99.90
11583;DHT22;34299;50.820;4.548;2024-02-28T00:45:19;3.50;99.90
11583;DHT22;34299;50.820;4.548;2024-02-28T00:47:46;3.50;99.90
11583;DHT22;34299;50.820;4.548;2024-02-28T00:50:13;3.50;99.90
11583;DHT22;34299;50.820;4.548;2024-02-28T00:52:40;3.50;99.90
11583;DHT22;34299;50.820;4.548;2024-02-28T00:55:07;3.50;99.90
11583;DHT22;34299;50.820;4.548;2024-02-28T00:57:34;3.70;99.90
11583;DHT22;34299;50.820;4.548;2024-02-28T01:00:03;3.50;99.90
11583;DHT22;34299;50.820;4.548;2024-02-28T01:02:31;3.60;99.90
11583;DHT22;34299;50.820;4.548;2024-02-28T01:04:58;3.60;99.90
11583;DHT22;34299;50.820;4.548;2024-02-28T01:07:25;3.60;99.90
11583;DHT22;34299;50.820;4.548;2024-02-28T01:09:54;3.70;99.90
11583;DHT22;34299;50.820;4.548;2024-02-28T01:12:21;3.50;99.90
11583;DHT22;34299;50.820;4.548;2024-02-28T01:14:48;3.40;99.90
11583;DHT22;34299;50.820;4.548;2024-02-28T01:17:16;3.60;99.90
11583;DHT22;34299;50.820;4.548;2024-02-28T01:19:43;3.30;99.90
11583;DHT22;34299;50.820;4.548;2024-02-28T01:22:10;3.20;99.90
11583;DHT22;34299;50.820;4.548;2024-02-28T01:24:37;3.20;99.90
11583;DHT22;34299;50.820;4.548;2024-02-28T01:27:04;3.20;99.90
11583;DHT22;34299;50.820;4.548;2024-02-28T01:29:31;3.20;99.90
11583;DHT22;34299;50.820;4.548;2024-02-28T01:31:58;3.30;99.90
11583;DHT22;34299;50.820;4.548;2024-02-28T01:34:26;3.50;99.90
11583;DHT22;34299;50.820;4.548;2024-02-28T01:36:53;3.30;99.90
11583;DHT22;34299;50.820;4.548;2024-02-28T01:39:21;3.20;99.90
11583;DHT22;34299;50.820;4.548;2024-02-28T01:41:52;3.20;99.90
11583;DHT22;34299;50.820;4.548;2024-02-28T01:44:19;3.20;99.90
11583;DHT22;34299;50.820;4.548;2024-02-28T01:46:46;3.00;99.90
11583;DHT22;34299;50.820;4.548;2024-02-28T01:49:13;2.90;99.90
11583;DHT22;34299;50.820;4.548;2024-02-28T01:51:43;3.00;99.90
11583;DHT22;34299;50.820;4.548;2024-02-28T01:54:11;2.90;99.90
11583;DHT22;34299;50.820;4.548;2024-02-28T01:56:39;2.80;99.90
11583;DHT22;34299;50.820;4.548;2024-02-28T01:59:07;2.60;99.90
11583;DHT22;34299;50.820;4.548;2024-02-28T02:01:36;2.40;99.90
11583;DHT22;34299;50.820;4.548;2024-02-28T02:04:03;2.40;99.90
11583;DHT22;34299;50.820;4.548;2024-02-28T02:06:31;2.50;99.90
11583;DHT22;34299;50.820;4.548;2024-02-28T02:08:59;2.30;99.90
11583;DHT22;34299;50.820;4.548;2024-02-28T02:11:28;2.20;99.90
11583;DHT22;34299;50.820;4.548;2024-02-28T02:13:55;2.30;99.90
11583;DHT22;34299;50.820;4.548;2024-02-28T02:16:22;2.20;99.90
11583;DHT22;34299;50.820;4.548;2024-02-28T02:18:52;2.20;99.90
11583;DHT22;34299;50.820;4.548;2024-02-28T02:21:23;2.30;99.90
11583;DHT22;34299;50.820;4.548;2024-02-28T02:23:51;2.30;99.90
11583;DHT22;34299;50.820;4.548;2024-02-28T02:26:19;2.10;99.90
11583;DHT22;34299;50.820;4.548;2024-02-28T02:28:46;2.20;99.90
11583;DHT22;34299;50.820;4.548;2024-02-28T02:31:13;2.10;99.90
11583;DHT22;34299;50.820;4.548;2024-02-28T02:33:41;2.10;99.90
11583;DHT22;34299;50.820;4.548;2024-02-28T02:36:08;2.10;99.90
11583;DHT22;34299;50.820;4.548;2024-02-28T02:38:35;2.00;99.90
11583;DHT22;34299;50.820;4.548;2024-02-28T02:41:03;2.00;99.90
11583;DHT22;34299;50.820;4.548;2024-02-28T02:43:30;1.80;99.90
11583;DHT22;34299;50.820;4.548;2024-02-28T02:45:56;2.00;99.90
11583;DHT22;34299;50.820;4.548;2024-02-28T02:48:23;1.90;99.90
11583;DHT22;34299;50.820;4.548;2024-02-28T02:50:50;1.90;99.90
11583;DHT22;34299;50.820;4.548;2024-02-28T02:53:17;1.90;99.90
11583;DHT22;34299;50.820;4.548;2024-02-28T02:55:44;2.00;99.90
11583;DHT22;34299;50.820;4.548;2024-02-28T02:58:15;1.90;99.90
11583;DHT22;34299;50.820;4.548;2024-02-28T03:00:42;2.10;99.90
11583;DHT22;34299;50.820;4.548;2024-02-28T03:03:09;2.00;99.90
11583;DHT22;34299;50.820;4.548;2024-02-28T03:05:36;2.10;99.90
11583;DHT22;34299;50.820;4.548;2024-02-28T03:08:03;2.00;99.90
11583;DHT22;34299;50.820;4.548;2024-02-28T03:10:30;2.10;99.90
11583;DHT22;34299;50.820;4.548;2024-02-28T03:12:57;2.10;99.90
11583;DHT22;34299;50.820;4.548;2024-02-28T03:15:25;2.10;99.90
11583;DHT22;34299;50.820;4.548;2024-02-28T03:17:52;2.00;99.90
11583;DHT22;34299;50.820;4.548;2024-02-28T03:20:19;2.00;99.90
11583;DHT22;34299;50.820;4.548;2024-02-28T03:22:46;1.90;99.90
11583;DHT22;34299;50.820;4.548;2024-02-28T03:25:13;2.00;99.90
11583;DHT22;34299;50.820;4.548;2024-02-28T03:27:40;1.90;99.90
11583;DHT22;34299;50.820;4.548;2024-02-28T03:30:08;1.90;99.90
11583;DHT22;34299;50.820;4.548;2024-02-28T03:32:36;2.00;99.90
11583;DHT22;34299;50.820;4.548;2024-02-28T03:35:03;2.40;99.90
11583;DHT22;34299;50.820;4.548;2024-02-28T03:37:31;2.00;99.90
11583;DHT22;34299;50.820;4.548;2024-02-28T03:39:58;2.00;99.90
11583;DHT22;34299;50.820;4.548;2024-02-28T03:42:25;1.80;99.90
11583;DHT22;34299;50.820;4.548;2024-02-28T03:44:52;2.20;99.90
11583;DHT22;34299;50.820;4.548;2024-02-28T03:47:18;2.10;99.90
11583;DHT22;34299;50.820;4.548;2024-02-28T03:49:47;2.10;99.90
11583;DHT22;34299;50.820;4.548;2024-02-28T03:52:14;2.00;99.90
11583;DHT22;34299;50.820;4.548;2024-02-28T03:54:42;2.00;99.90
11583;DHT22;34299;50.820;4.548;2024-02-28T03:57:10;1.90;99.90
11583;DHT22;34299;50.820;4.548;2024-02-28T03:59:37;1.90;99.90
11583;DHT22;34299;50.820;4.548;2024-02-28T04:02:04;1.80;99.90
11583;DHT22;34299;50.820;4.548;2024-02-28T04:04:31;1.80;99.90
11583;DHT22;34299;50.820;4.548;2024-02-28T04:06:59;1.70;99.90
11583;DHT22;34299;50.820;4.548;2024-02-28T04:09:26;1.90;99.90
11583;DHT22;34299;50.820;4.548;2024-02-28T04:11:53;1.70;99.90
11583;DHT22;34299;50.820;4.548;2024-02-28T04:14:20;1.70;99.90
11583;DHT22;34299;50.820;4.548;2024-02-28T04:16:47;1.90;99.90
11583;DHT22;34299;50.820;4.548;2024-02-28T04:19:16;1.70;99.90
11583;DHT22;34299;50.820;4.548;2024-02-28T04:21:42;1.70;99.90
11583;DHT22;34299;50.820;4.548;2024-02-28T04:24:11;1.60;99.90
11583;DHT22;34299;50.820;4.548;2024-02-28T04:26:38;1.60;99.90
11583;DHT22;34299;50.820;4.548;2024-02-28T04:29:05;1.60;99.90
11583;DHT22;34299;50.820;4.548;2024-02-28T04:31:38;1.60;99.90
11583;DHT22;34299;50.820;4.548;2024-02-28T04:34:05;1.50;99.90
11583;DHT22;34299;50.820;4.548;2024-02-28T04:36:31;1.40;99.90
11583;DHT22;34299;50.820;4.548;2024-02-28T04:38:58;1.50;99.90
11583;DHT22;34299;50.820;4.548;2024-02-28T04:41:27;1.60;99.90
11583;DHT22;34299;50.820;4.548;2024-02-28T04:43:54;1.50;99.90
11583;DHT22;34299;50.820;4.548;2024-02-28T04:46:21;1.50;99.90
11583;DHT22;34299;50.820;4.548;2024-02-28T04:48:48;1.40;99.90
11583;DHT22;34299;50.820;4.548;2024-02-28T04:51:15;1.40;99.90
11583;DHT22;34299;50.820;4.548;2024-02-28T04:53:43;1.30;99.90
11583;DHT22;34299;50.820;4.548;2024-02-28T04:56:10;1.40;99.90
11583;DHT22;34299;50.820;4.548;2024-02-28T04:58:40;1.40;99.90
11583;DHT22;34299;50.820;4.548;2024-02-28T05:01:07;1.40;99.90
11583;DHT22;34299;50.820;4.548;2024-02-28T05:03:34;1.40;99.90
11583;DHT22;34299;50.820;4.548;2024-02-28T05:06:01;1.50;99.90
11583;DHT22;34299;50.820;4.548;2024-02-28T05:08:28;1.60;99.90
11583;DHT22;34299;50.820;4.548;2024-02-28T05:10:55;1.60;99.90
11583;DHT22;34299;50.820;4.548;2024-02-28T05:13:22;1.60;99.90
11583;DHT22;34299;50.820;4.548;2024-02-28T05:15:51;1.60;99.90
11583;DHT22;34299;50.820;4.548;2024-02-28T05:18:18;1.80;99.90
11583;DHT22;34299;50.820;4.548;2024-02-28T05:20:45;1.80;99.90
11583;DHT22;34299;50.820;4.548;2024-02-28T05:23:12;1.80;99.90
11583;DHT22;34299;50.820;4.548;2024-02-28T05:25:39;1.90;99.90
11583;DHT22;34299;50.820;4.548;2024-02-28T05:28:06;1.90;99.90
11583;DHT22;34299;50.820;4.548;2024-02-28T05:30:33;1.90;99.90
11583;DHT22;34299;50.820;4.548;2024-02-28T05:33:01;1.90;99.90
11583;DHT22;34299;50.820;4.548;2024-02-28T05:35:28;2.00;99.90
11583;DHT22;34299;50.820;4.548;2024-02-28T05:37:55;2.10;99.90
11583;DHT22;34299;50.820;4.548;2024-02-28T05:40:22;2.10;99.90
11583;DHT22;34299;50.820;4.548;2024-02-28T05:42:49;2.10;99.90
11583;DHT22;34299;50.820;4.548;2024-02-28T05:45:15;2.10;99.90
11583;DHT22;34299;50.820;4.548;2024-02-28T05:47:42;2.00;99.90
11583;DHT22;34299;50.820;4.548;2024-02-28T05:50:11;2.20;99.90
11583;DHT22;34299;50.820;4.548;2024-02-28T05:52:41;2.10;99.90
11583;DHT22;34299;50.820;4.548;2024-02-28T05:55:08;2.00;99.90
11583;DHT22;34299;50.820;4.548;2024-02-28T05:57:35;2.10;99.90
11583;DHT22;34299;50.820;4.548;2024-02-28T06:00:02;2.10;99.90
11583;DHT22;34299;50.820;4.548;2024-02-28T06:02:35;2.10;99.90
11583;DHT22;34299;50.820;4.548;2024-02-28T06:05:02;2.20;99.90
11583;DHT22;34299;50.820;4.548;2024-02-28T06:07:31;2.20;99.90
11583;DHT22;34299;50.820;4.548;2024-02-28T06:09:58;2.10;99.90
11583;DHT22;34299;50.820;4.548;2024-02-28T06:12:25;2.10;99.90
11583;DHT22;34299;50.820;4.548;2024-02-28T06:14:52;2.20;99.90
11583;DHT22;34299;50.820;4.548;2024-02-28T06:17:20;2.20;99.90
11583;DHT22;34299;50.820;4.548;2024-02-28T06:19:47;2.10;99.90
11583;DHT22;34299;50.820;4.548;2024-02-28T06:22:14;2.20;99.90
11583;DHT22;34299;50.820;4.548;2024-02-28T06:24:45;2.20;99.90
11583;DHT22;34299;50.820;4.548;2024-02-28T06:27:12;2.10;99.90
11583;DHT22;34299;50.820;4.548;2024-02-28T06:29:39;2.30;99.90
11583;DHT22;34299;50.820;4.548;2024-02-28T06:32:06;2.30;99.90
11583;DHT22;34299;50.820;4.548;2024-02-28T06:34:33;2.20;99.90
11583;DHT22;34299;50.820;4.548;2024-02-28T06:37:00;2.40;99.90
11583;DHT22;34299;50.820;4.548;2024-02-28T06:39:27;2.40;99.90
11583;DHT22;34299;50.820;4.548;2024-02-28T06:41:56;2.40;99.90
11583;DHT22;34299;50.820;4.548;2024-02-28T06:44:22;2.40;99.90
11583;DHT22;34299;50.820;4.548;2024-02-28T06:46:49;2.30;99.90
11583;DHT22;34299;50.820;4.548;2024-02-28T06:49:16;2.40;99.90
11583;DHT22;34299;50.820;4.548;2024-02-28T06:51:43;2.40;99.90
11583;DHT22;34299;50.820;4.548;2024-02-28T06:54:11;2.40;99.90
11583;DHT22;34299;50.820;4.548;2024-02-28T06:56:37;2.40;99.90
11583;DHT22;34299;50.820;4.548;2024-02-28T06:59:06;2.50;99.90
11583;DHT22;34299;50.820;4.548;2024-02-28T07:01:33;2.50;99.90
11583;DHT22;34299;50.820;4.548;2024-02-28T07:04:00;2.60;99.90
11583;DHT22;34299;50.820;4.548;2024-02-28T07:06:27;2.60;99.90
11583;DHT22;34299;50.820;4.548;2024-02-28T07:08:54;2.70;99.90
11583;DHT22;34299;50.820;4.548;2024-02-28T07:11:21;2.60;99.90
11583;DHT22;34299;50.820;4.548;2024-02-28T07:13:48;2.70;99.90
11583;DHT22;34299;50.820;4.548;2024-02-28T07:16:16;2.80;99.90
11583;DHT22;34299;50.820;4.548;2024-02-28T07:18:43;2.70;99.90
11583;DHT22;34299;50.820;4.548;2024-02-28T07:21:10;2.70;99.90
11583;DHT22;34299;50.820;4.548;2024-02-28T07:23:39;2.90;99.90
11583;DHT22;34299;50.820;4.548;2024-02-28T07:26:07;3.00;99.90
11583;DHT22;34299;50.820;4.548;2024-02-28T07:28:33;3.00;99.90
11583;DHT22;34299;50.820;4.548;2024-02-28T07:31:00;3.00;99.90
11583;DHT22;34299;50.820;4.548;2024-02-28T07:33:29;3.20;99.90
11583;DHT22;34299;50.820;4.548;2024-02-28T07:35:55;3.10;99.90
11583;DHT22;34299;50.820;4.548;2024-02-28T07:38:26;3.20;99.90
11583;DHT22;34299;50.820;4.548;2024-02-28T07:40:54;3.50;99.90
11583;DHT22;34299;50.820;4.548;2024-02-28T07:43:21;3.20;99.90
11583;DHT22;34299;50.820;4.548;2024-02-28T07:45:48;3.30;99.90
11583;DHT22;34299;50.820;4.548;2024-02-28T07:48:14;3.30;99.90
11583;DHT22;34299;50.820;4.548;2024-02-28T07:50:44;3.40;99.90
11583;DHT22;34299;50.820;4.548;2024-02-28T07:53:12;3.50;99.90
11583;DHT22;34299;50.820;4.548;2024-02-28T07:55:39;3.40;99.90
11583;DHT22;34299;50.820;4.548;2024-02-28T07:58:06;3.40;99.90
11583;DHT22;34299;50.820;4.548;2024-02-28T08:00:32;3.60;99.90
11583;DHT22;34299;50.820;4.548;2024-02-28T08:02:59;3.50;99.90
11583;DHT22;34299;50.820;4.548;2024-02-28T08:05:26;3.60;99.90
11583;DHT22;34299;50.820;4.548;2024-02-28T08:07:55;3.70;99.90
11583;DHT22;34299;50.820;4.548;2024-02-28T08:10:22;3.80;99.90
11583;DHT22;34299;50.820;4.548;2024-02-28T08:12:49;3.90;99.90
11583;DHT22;34299;50.820;4.548;2024-02-28T08:15:16;4.00;99.90
11583;DHT22;34299;50.820;4.548;2024-02-28T08:17:43;3.90;99.90
11583;DHT22;34299;50.820;4.548;2024-02-28T08:20:10;4.10;99.90
11583;DHT22;34299;50.820;4.548;2024-02-28T08:22:37;4.00;99.90
11583;DHT22;34299;50.820;4.548;2024-02-28T08:25:06;4.20;99.90
11583;DHT22;34299;50.820;4.548;2024-02-28T08:27:36;4.30;99.90
11583;DHT22;34299;50.820;4.548;2024-02-28T08:30:05;4.30;99.90
11583;DHT22;34299;50.820;4.548;2024-02-28T08:32:33;4.40;99.90
11583;DHT22;34299;50.820;4.548;2024-02-28T08:35:00;4.80;99.90
11583;DHT22;34299;50.820;4.548;2024-02-28T08:37:27;4.70;99.90
11583;DHT22;34299;50.820;4.548;2024-02-28T08:39:54;4.80;99.90
11583;DHT22;34299;50.820;4.548;2024-02-28T08:42:25;4.80;99.90
11583;DHT22;34299;50.820;4.548;2024-02-28T08:44:52;4.90;99.90
11583;DHT22;34299;50.820;4.548;2024-02-28T08:47:22;4.90;99.90
11583;DHT22;34299;50.820;4.548;2024-02-28T08:49:50;4.90;99.90
11583;DHT22;34299;50.820;4.548;2024-02-28T08:52:17;5.00;99.90
11583;DHT22;34299;50.820;4.548;2024-02-28T08:54:44;5.00;99.90
11583;DHT22;34299;50.820;4.548;2024-02-28T08:57:11;5.00;99.90
11583;DHT22;34299;50.820;4.548;2024-02-28T08:59:39;5.00;99.90
11583;DHT22;34299;50.820;4.548;2024-02-28T09:02:06;4.90;99.90
11583;DHT22;34299;50.820;4.548;2024-02-28T09:04:34;5.10;99.90
11583;DHT22;34299;50.820;4.548;2024-02-28T09:07:00;5.00;99.90
11583;DHT22;34299;50.820;4.548;2024-02-28T09:09:28;5.10;99.90
11583;DHT22;34299;50.820;4.548;2024-02-28T09:11:57;5.10;99.90
11583;DHT22;34299;50.820;4.548;2024-02-28T09:14:24;5.30;99.90
11583;DHT22;34299;50.820;4.548;2024-02-28T09:16:52;5.50;99.90
11583;DHT22;34299;50.820;4.548;2024-02-28T09:19:21;5.70;99.90
11583;DHT22;34299;50.820;4.548;2024-02-28T09:21:49;5.50;99.90
11583;DHT22;34299;50.820;4.548;2024-02-28T09:24:16;5.60;99.90
11583;DHT22;34299;50.820;4.548;2024-02-28T09:26:43;5.60;99.90
11583;DHT22;34299;50.820;4.548;2024-02-28T09:29:10;5.70;99.90
11583;DHT22;34299;50.820;4.548;2024-02-28T09:31:36;5.60;99.90
11583;DHT22;34299;50.820;4.548;2024-02-28T09:34:05;5.60;99.90
11583;DHT22;34299;50.820;4.548;2024-02-28T09:36:40;5.70;99.90
11583;DHT22;34299;50.820;4.548;2024-02-28T09:39:07;5.80;99.90
11583;DHT22;34299;50.820;4.548;2024-02-28T09:41:34;5.70;99.90
11583;DHT22;34299;50.820;4.548;2024-02-28T09:44:02;5.60;99.90
11583;DHT22;34299;50.820;4.548;2024-02-28T09:46:30;5.70;99.90
11583;DHT22;34299;50.820;4.548;2024-02-28T09:48:59;5.80;99.90
11583;DHT22;34299;50.820;4.548;2024-02-28T09:51:30;5.90;99.90
11583;DHT22;34299;50.820;4.548;2024-02-28T09:53:59;5.90;99.90
11583;DHT22;34299;50.820;4.548;2024-02-28T09:56:27;6.00;99.90
11583;DHT22;34299;50.820;4.548;2024-02-28T09:58:54;6.00;99.90
11583;DHT22;34299;50.820;4.548;2024-02-28T10:01:22;6.30;99.90
11583;DHT22;34299;50.820;4.548;2024-02-28T10:03:51;6.30;99.90
11583;DHT22;34299;50.820;4.548;2024-02-28T10:06:18;6.40;99.90
11583;DHT22;34299;50.820;4.548;2024-02-28T10:08:47;6.30;99.90
11583;DHT22;34299;50.820;4.548;2024-02-28T10:11:17;6.30;99.90
11583;DHT22;34299;50.820;4.548;2024-02-28T10:13:46;6.50;99.90
11583;DHT22;34299;50.820;4.548;2024-02-28T10:16:13;6.40;99.90
11583;DHT22;34299;50.820;4.548;2024-02-28T10:18:42;6.60;99.90
11583;DHT22;34299;50.820;4.548;2024-02-28T10:21:09;6.70;99.90
11583;DHT22;34299;50.820;4.548;2024-02-28T10:23:38;6.80;99.90
11583;DHT22;34299;50.820;4.548;2024-02-28T10:26:09;6.90;99.90
11583;DHT22;34299;50.820;4.548;2024-02-28T10:28:36;7.00;99.90
11583;DHT22;34299;50.820;4.548;2024-02-28T10:31:04;7.20;99.90
11583;DHT22;34299;50.820;4.548;2024-02-28T10:33:31;7.40;99.90
11583;DHT22;34299;50.820;4.548;2024-02-28T10:35:59;7.30;99.90
11583;DHT22;34299;50.820;4.548;2024-02-28T10:38:27;7.50;99.90
11583;DHT22;34299;50.820;4.548;2024-02-28T10:40:54;7.60;99.90
11583;DHT22;34299;50.820;4.548;2024-02-28T10:43:23;7.50;99.90
11583;DHT22;34299;50.820;4.548;2024-02-28T10:45:52;7.50;99.90
11583;DHT22;34299;50.820;4.548;2024-02-28T10:48:21;7.60;99.90
11583;DHT22;34299;50.820;4.548;2024-02-28T10:50:48;7.70;99.90
11583;DHT22;34299;50.820;4.548;2024-02-28T10:53:16;7.70;99.90
11583;DHT22;34299;50.820;4.548;2024-02-28T10:55:47;7.60;99.90
11583;DHT22;34299;50.820;4.548;2024-02-28T10:58:15;7.70;99.90
11583;DHT22;34299;50.820;4.548;2024-02-28T11:00:43;7.90;99.90
11583;DHT22;34299;50.820;4.548;2024-02-28T11:03:13;7.90;99.90
11583;DHT22;34299;50.820;4.548;2024-02-28T11:05:43;7.90;99.90
11583;DHT22;34299;50.820;4.548;2024-02-28T11:08:19;8.00;99.90
11583;DHT22;34299;50.820;4.548;2024-02-28T11:10:54;8.00;99.90
11583;DHT22;34299;50.820;4.548;2024-02-28T11:13:22;8.30;99.90
11583;DHT22;34299;50.820;4.548;2024-02-28T11:15:50;8.30;99.90
11583;DHT22;34299;50.820;4.548;2024-02-28T11:18:17;8.40;99.90
11583;DHT22;34299;50.820;4.548;2024-02-28T11:20:44;8.40;99.90
11583;DHT22;34299;50.820;4.548;2024-02-28T11:23:13;8.30;99.90
11583;DHT22;34299;50.820;4.548;2024-02-28T11:25:41;8.30;99.90
11583;DHT22;34299;50.820;4.548;2024-02-28T11:28:08;8.50;99.90
11583;DHT22;34299;50.820;4.548;2024-02-28T11:30:35;8.40;99.90
11583;DHT22;34299;50.820;4.548;2024-02-28T11:33:04;8.30;99.90
11583;DHT22;34299;50.820;4.548;2024-02-28T11:35:33;8.40;99.90
11583;DHT22;34299;50.820;4.548;2024-02-28T11:38:01;8.40;99.90
11583;DHT22;34299;50.820;4.548;2024-02-28T11:40:28;8.50;99.90
11583;DHT22;34299;50.820;4.548;2024-02-28T11:42:55;8.60;99.90
11583;DHT22;34299;50.820;4.548;2024-02-28T11:45:23;8.50;99.90
11583;DHT22;34299;50.820;4.548;2024-02-28T11:47:51;8.60;99.90
11583;DHT22;34299;50.820;4.548;2024-02-28T11:50:19;8.40;99.90
11583;DHT22;34299;50.820;4.548;2024-02-28T11:52:46;8.50;99.90
11583;DHT22;34299;50.820;4.548;2024-02-28T11:55:13;8.50;99.90
11583;DHT22;34299;50.820;4.548;2024-02-28T11:57:40;8.50;99.90
11583;DHT22;34299;50.820;4.548;2024-02-28T12:00:08;8.60;99.90
11583;DHT22;34299;50.820;4.548;2024-02-28T12:02:38;8.70;99.90
11583;DHT22;34299;50.820;4.548;2024-02-28T12:05:06;8.60;99.90
11583;DHT22;34299;50.820;4.548;2024-02-28T12:07:35;8.60;99.90
11583;DHT22;34299;50.820;4.548;2024-02-28T12:10:02;8.60;99.90
11583;DHT22;34299;50.820;4.548;2024-02-28T12:12:29;8.60;99.90
11583;DHT22;34299;50.820;4.548;2024-02-28T12:14:58;8.60;99.90
11583;DHT22;34299;50.820;4.548;2024-02-28T12:17:26;8.60;99.90
11583;DHT22;34299;50.820;4.548;2024-02-28T12:19:53;8.70;99.90
11583;DHT22;34299;50.820;4.548;2024-02-28T12:22:20;8.50;99.90
11583;DHT22;34299;50.820;4.548;2024-02-28T12:24:48;8.90;99.90
11583;DHT22;34299;50.820;4.548;2024-02-28T12:27:15;8.90;99.90
11583;DHT22;34299;50.820;4.548;2024-02-28T12:29:43;9.00;99.90
11583;DHT22;34299;50.820;4.548;2024-02-28T12:32:10;9.10;99.90
11583;DHT22;34299;50.820;4.548;2024-02-28T12:34:37;9.10;99.90
11583;DHT22;34299;50.820;4.548;2024-02-28T12:37:04;9.50;99.90
11583;DHT22;34299;50.820;4.548;2024-02-28T12:39:32;9.10;99.90
11583;DHT22;34299;50.820;4.548;2024-02-28T12:42:01;8.90;99.90
11583;DHT22;34299;50.820;4.548;2024-02-28T12:44:28;9.30;99.90
11583;DHT22;34299;50.820;4.548;2024-02-28T12:46:55;9.50;99.90
11583;DHT22;34299;50.820;4.548;2024-02-28T12:49:22;9.60;99.90
11583;DHT22;34299;50.820;4.548;2024-02-28T12:51:49;9.50;99.90
11583;DHT22;34299;50.820;4.548;2024-02-28T12:54:17;9.50;99.90
11583;DHT22;34299;50.820;4.548;2024-02-28T12:56:45;9.50;99.90
11583;DHT22;34299;50.820;4.548;2024-02-28T12:59:13;9.70;99.90
11583;DHT22;34299;50.820;4.548;2024-02-28T13:01:40;9.50;99.90
11583;DHT22;34299;50.820;4.548;2024-02-28T13:04:07;9.70;99.90
11583;DHT22;34299;50.820;4.548;2024-02-28T13:06:35;9.60;99.90
11583;DHT22;34299;50.820;4.548;2024-02-28T13:09:02;9.60;99.90
11583;DHT22;34299;50.820;4.548;2024-02-28T13:11:30;9.60;99.90
11583;DHT22;34299;50.820;4.548;2024-02-28T13:13:57;9.70;99.90
11583;DHT22;34299;50.820;4.548;2024-02-28T13:16:25;9.70;99.90
11583;DHT22;34299;50.820;4.548;2024-02-28T13:18:52;9.50;99.90
11583;DHT22;34299;50.820;4.548;2024-02-28T13:21:19;9.30;99.90
11583;DHT22;34299;50.820;4.548;2024-02-28T13:23:46;9.40;99.90
11583;DHT22;34299;50.820;4.548;2024-02-28T13:26:13;9.40;99.90
11583;DHT22;34299;50.820;4.548;2024-02-28T13:28:43;9.30;99.90
11583;DHT22;34299;50.820;4.548;2024-02-28T13:31:10;9.50;99.90
11583;DHT22;34299;50.820;4.548;2024-02-28T13:33:39;9.70;99.90
11583;DHT22;34299;50.820;4.548;2024-02-28T13:36:07;9.50;99.90
11583;DHT22;34299;50.820;4.548;2024-02-28T13:38:35;9.60;99.90
11583;DHT22;34299;50.820;4.548;2024-02-28T13:41:02;9.50;99.90
11583;DHT22;34299;50.820;4.548;2024-02-28T13:43:29;9.70;99.90
11583;DHT22;34299;50.820;4.548;2024-02-28T13:45:56;9.90;99.90
11583;DHT22;34299;50.820;4.548;2024-02-28T13:48:26;10.20;99.90
11583;DHT22;34299;50.820;4.548;2024-02-28T13:50:55;10.10;99.90
11583;DHT22;34299;50.820;4.548;2024-02-28T13:53:22;10.30;99.90
11583;DHT22;34299;50.820;4.548;2024-02-28T13:55:50;10.40;99.90
11583;DHT22;34299;50.820;4.548;2024-02-28T13:58:17;10.50;99.90
11583;DHT22;34299;50.820;4.548;2024-02-28T14:00:44;10.50;99.90
11583;DHT22;34299;50.820;4.548;2024-02-28T14:03:13;10.60;99.90
11583;DHT22;34299;50.820;4.548;2024-02-28T14:05:40;10.70;99.90
11583;DHT22;34299;50.820;4.548;2024-02-28T14:08:09;10.80;99.90
11583;DHT22;34299;50.820;4.548;2024-02-28T14:10:38;10.70;99.90
11583;DHT22;34299;50.820;4.548;2024-02-28T14:13:05;10.60;99.90
11583;DHT22;34299;50.820;4.548;2024-02-28T14:15:32;10.40;99.90
11583;DHT22;34299;50.820;4.548;2024-02-28T14:18:02;10.30;99.90
11583;DHT22;34299;50.820;4.548;2024-02-28T14:20:29;10.30;99.90
11583;DHT22;34299;50.820;4.548;2024-02-28T14:22:56;10.40;99.90
11583;DHT22;34299;50.820;4.548;2024-02-28T14:25:25;10.50;99.90
11583;DHT22;34299;50.820;4.548;2024-02-28T14:27:53;10.50;99.90
11583;DHT22;34299;50.820;4.548;2024-02-28T14:30:21;10.40;99.90
11583;DHT22;34299;50.820;4.548;2024-02-28T14:32:50;10.30;99.90
11583;DHT22;34299;50.820;4.548;2024-02-28T14:35:17;10.20;99.90
11583;DHT22;34299;50.820;4.548;2024-02-28T14:37:44;10.10;99.90
11583;DHT22;34299;50.820;4.548;2024-02-28T14:40:11;10.20;99.90
11583;DHT22;34299;50.820;4.548;2024-02-28T14:42:41;10.40;99.90
11583;DHT22;34299;50.820;4.548;2024-02-28T14:45:09;10.60;99.90
11583;DHT22;34299;50.820;4.548;2024-02-28T14:47:37;10.60;99.90
11583;DHT22;34299;50.820;4.548;2024-02-28T14:50:04;10.70;99.90
11583;DHT22;34299;50.820;4.548;2024-02-28T14:52:33;10.50;99.90
11583;DHT22;34299;50.820;4.548;2024-02-28T14:55:00;10.70;99.90
11583;DHT22;34299;50.820;4.548;2024-02-28T14:57:29;10.70;99.90
11583;DHT22;34299;50.820;4.548;2024-02-28T14:59:58;10.40;99.90
11583;DHT22;34299;50.820;4.548;2024-02-28T15:02:25;10.50;99.90
11583;DHT22;34299;50.820;4.548;2024-02-28T15:04:52;10.70;99.90
11583;DHT22;34299;50.820;4.548;2024-02-28T15:07:19;10.70;99.90
11583;DHT22;34299;50.820;4.548;2024-02-28T15:09:45;10.40;99.90
11583;DHT22;34299;50.820;4.548;2024-02-28T15:12:12;10.30;99.90
11583;DHT22;34299;50.820;4.548;2024-02-28T15:14:41;10.20;99.90
11583;DHT22;34299;50.820;4.548;2024-02-28T15:17:10;9.90;99.90
11583;DHT22;34299;50.820;4.548;2024-02-28T15:19:37;9.80;99.90
11583;DHT22;34299;50.820;4.548;2024-02-28T15:22:04;9.40;99.90
11583;DHT22;34299;50.820;4.548;2024-02-28T15:24:31;9.30;99.90
11583;DHT22;34299;50.820;4.548;2024-02-28T15:26:58;9.80;99.90
11583;DHT22;34299;50.820;4.548;2024-02-28T15:29:25;9.80;99.90
11583;DHT22;34299;50.820;4.548;2024-02-28T15:31:53;10.20;99.90
11583;DHT22;34299;50.820;4.548;2024-02-28T15:34:21;10.10;99.90
11583;DHT22;34299;50.820;4.548;2024-02-28T15:36:48;10.30;99.90
11583;DHT22;34299;50.820;4.548;2024-02-28T15:39:15;10.40;99.90
11583;DHT22;34299;50.820;4.548;2024-02-28T15:41:42;10.30;99.90
11583;DHT22;34299;50.820;4.548;2024-02-28T15:44:09;10.30;99.90
11583;DHT22;34299;50.820;4.548;2024-02-28T15:46:36;10.30;99.90
11583;DHT22;34299;50.820;4.548;2024-02-28T15:49:03;10.50;99.90
11583;DHT22;34299;50.820;4.548;2024-02-28T15:51:32;11.30;99.90
11583;DHT22;34299;50.820;4.548;2024-02-28T15:53:59;11.20;99.90
11583;DHT22;34299;50.820;4.548;2024-02-28T15:56:26;10.90;99.90
11583;DHT22;34299;50.820;4.548;2024-02-28T15:58:55;10.60;99.90
11583;DHT22;34299;50.820;4.548;2024-02-28T16:01:22;10.50;99.90
11583;DHT22;34299;50.820;4.548;2024-02-28T16:03:49;10.30;99.90
11583;DHT22;34299;50.820;4.548;2024-02-28T16:06:16;10.30;99.90
11583;DHT22;34299;50.820;4.548;2024-02-28T16:08:44;10.40;99.90
11583;DHT22;34299;50.820;4.548;2024-02-28T16:11:11;10.30;99.90